Time;durP1;ratioP1;P1;durP2;ratioP2;P2;SDS_P1;SDS_P2;PMS_P1;PMS_P2;Temp;Humidity;BMP_temperature;BMP_pressure;BME280_temperature;BME280_humidity;BME280_pressure;Samples;Min_cycle;Max_cycle;Signal;HPM_P1;HPM_P2
2022/06/14 00:00:53;;;;;;;4.82;2.67;;;26.20;66.30;;;;;;6337887;22;20006;-81
2022/06/14 00:02:25;;;;;;;3.80;2.17;;;26.20;66.60;;;;;;6337977;22;20034;-82
2022/06/14 00:04:51;;;;;;;3.50;2.28;;;26.20;65.80;;;;;;6337340;22;20002;-82
2022/06/14 00:07:17;;;;;;;3.92;2.20;;;26.20;65.60;;;;;;6338575;22;19999;-83
2022/06/14 00:09:44;;;;;;;3.00;1.88;;;26.20;65.40;;;;;;6337848;22;20306;-83
2022/06/14 00:12:12;;;;;;;2.95;2.10;;;26.10;65.10;;;;;;6338401;22;20006;-82
2022/06/14 00:14:38;;;;;;;2.05;1.85;;;26.10;65.50;;;;;;6337220;22;20047;-81
2022/06/14 00:17:04;;;;;;;6.13;1.90;;;26.00;65.60;;;;;;6338393;22;20056;-81
2022/06/14 00:19:30;;;;;;;3.22;1.88;;;25.90;65.50;;;;;;6337798;22;20344;-80
2022/06/14 00:22:01;;;;;;;3.05;2.00;;;25.90;65.30;;;;;;6338396;22;20059;-81
2022/06/14 00:24:28;;;;;;;4.05;2.60;;;25.90;65.80;;;;;;6337841;22;20010;-81
2022/06/14 00:26:53;;;;;;;1.83;1.60;;;25.70;65.90;;;;;;6337782;22;20075;-83
2022/06/14 00:29:19;;;;;;;4.10;2.40;;;25.70;66.00;;;;;;6337273;22;20380;-84
2022/06/14 00:31:45;;;;;;;3.38;2.30;;;25.70;66.40;;;;;;6337449;22;20011;-84
2022/06/14 00:34:11;;;;;;;2.72;2.00;;;25.60;66.70;;;;;;6335663;22;20075;-84
2022/06/14 00:36:36;;;;;;;4.13;1.88;;;25.40;66.50;;;;;;6336613;22;20002;-84
2022/06/14 00:39:07;;;;;;;1.65;1.55;;;25.50;66.40;;;;;;6337346;22;20290;-84
2022/06/14 00:41:38;;;;;;;4.13;2.72;;;25.50;66.50;;;;;;6337311;22;20010;-84
2022/06/14 00:44:06;;;;;;;5.88;2.75;;;25.40;67.30;;;;;;6310946;22;20060;-83
2022/06/14 00:46:47;;;;;;;3.22;2.33;;;25.30;67.70;;;;;;6337244;22;20022;-80
2022/06/14 00:49:19;;;;;;;2.47;2.25;;;25.20;67.80;;;;;;6337857;22;20026;-80
2022/06/14 00:51:55;;;;;;;3.50;2.42;;;25.30;68.00;;;;;;6338291;22;20010;-78
2022/06/14 00:54:26;;;;;;;2.42;1.90;;;25.30;68.30;;;;;;6337812;22;20001;-80
2022/06/14 00:57:18;;;;;;;3.03;2.13;;;25.30;67.50;;;;;;6310337;22;20002;-79
2022/06/14 00:59:54;;;;;;;4.95;2.55;;;25.30;68.10;;;;;;6308583;22;19999;-79
2022/06/14 01:02:24;;;;;;;2.67;1.75;;;25.20;68.30;;;;;;6337589;22;19998;-80
2022/06/14 01:04:50;;;;;;;2.20;2.00;;;25.20;67.80;;;;;;6336828;22;20002;-80
2022/06/14 01:07:20;;;;;;;4.50;2.67;;;25.10;68.00;;;;;;6337092;22;20002;-80
2022/06/14 01:09:57;;;;;;;1.90;1.77;;;25.10;68.40;;;;;;6336389;22;20065;-80
2022/06/14 01:12:28;;;;;;;1.80;1.65;;;25.10;68.30;;;;;;6337021;22;20433;-80
2022/06/14 01:15:04;;;;;;;1.85;1.65;;;25.10;67.80;;;;;;6336818;22;19999;-81
2022/06/14 01:17:35;;;;;;;2.55;1.80;;;25.20;68.00;;;;;;6337901;22;20074;-83
2022/06/14 01:20:01;;;;;;;2.92;1.85;;;25.10;67.70;;;;;;6337147;22;20006;-84
2022/06/14 01:22:29;;;;;;;3.30;2.40;;;25.20;67.50;;;;;;6337796;22;20006;-83
2022/06/14 01:24:56;;;;;;;3.53;1.90;;;25.20;68.20;;;;;;6337512;22;20419;-83
2022/06/14 01:27:24;;;;;;;4.60;2.38;;;25.10;68.30;;;;;;6337350;22;20010;-83
2022/06/14 01:29:57;;;;;;;2.88;1.70;;;25.10;68.30;;;;;;6336785;22;20003;-83
2022/06/14 01:32:26;;;;;;;2.22;2.00;;;25.10;67.90;;;;;;6338287;22;20351;-83
2022/06/14 01:34:54;;;;;;;2.03;1.60;;;25.20;67.80;;;;;;6336969;22;20019;-83
2022/06/14 01:37:22;;;;;;;4.32;1.92;;;25.10;67.70;;;;;;6337278;22;19999;-83
2022/06/14 01:39:48;;;;;;;1.90;1.73;;;25.20;67.70;;;;;;6337535;22;20492;-84
2022/06/14 01:42:37;;;;;;;4.20;1.77;;;25.20;67.50;;;;;;6337979;22;20079;-83
2022/06/14 01:45:10;;;;;;;1.85;1.70;;;25.20;67.30;;;;;;6309636;22;20006;-83
2022/06/14 01:47:46;;;;;;;2.03;1.40;;;25.10;67.10;;;;;;6339933;22;19995;-84
2022/06/14 01:54:01;;;;;;;3.15;1.73;;;25.00;66.50;;;;;;6213908;23;20016;-84
2022/06/14 01:56:39;;;;;;;2.63;1.70;;;25.10;66.60;;;;;;6213975;23;20059;-83
2022/06/14 01:59:36;;;;;;;5.30;2.15;;;25.00;65.90;;;;;;6304892;22;20117;-84
2022/06/14 02:02:11;;;;;;;2.97;1.80;;;24.90;66.00;;;;;;6312204;22;20321;-83
2022/06/14 02:04:47;;;;;;;2.28;1.48;;;24.90;66.10;;;;;;6311031;22;20006;-83
2022/06/14 02:07:33;;;;;;;4.13;1.30;;;24.80;66.20;;;;;;6311659;22;20325;-85
2022/06/14 02:10:08;;;;;;;1.60;1.20;;;24.90;66.10;;;;;;6338754;22;20025;-84
2022/06/14 02:13:03;;;;;;;1.83;1.42;;;24.90;65.70;;;;;;6338888;22;20011;-84
2022/06/14 02:15:41;;;;;;;1.60;1.25;;;25.00;65.60;;;;;;6339063;22;20006;-85
2022/06/14 02:18:15;;;;;;;1.92;1.02;;;25.10;65.40;;;;;;6312101;22;20006;-84
2022/06/14 02:20:59;;;;;;;1.77;1.40;;;25.10;65.20;;;;;;6338856;22;19995;-85
2022/06/14 02:23:28;;;;;;;1.75;1.33;;;25.20;65.00;;;;;;6338892;22;20010;-84
2022/06/14 02:26:17;;;;;;;2.45;1.60;;;25.20;64.90;;;;;;6338478;22;19999;-85
2022/06/14 02:29:09;;;;;;;5.70;1.50;;;25.20;64.90;;;;;;6338933;22;20045;-84
2022/06/14 02:31:58;;;;;;;1.50;1.40;;;25.10;64.90;;;;;;6324851;22;20032;-84
2022/06/14 02:34:33;;;;;;;1.67;1.40;;;25.10;65.00;;;;;;6310911;22;20006;-83
2022/06/14 02:37:17;;;;;;;1.55;1.25;;;25.10;64.90;;;;;;6339000;22;20076;-83
2022/06/14 02:39:59;;;;;;;2.45;1.45;;;25.10;64.90;;;;;;6338515;22;20002;-83
2022/06/14 02:42:35;;;;;;;2.53;1.48;;;25.10;64.70;;;;;;6338755;22;20397;-84
2022/06/14 02:45:21;;;;;;;2.17;1.30;;;25.10;64.80;;;;;;6337815;22;20359;-84
2022/06/14 02:48:13;;;;;;;2.85;1.60;;;25.10;64.70;;;;;;6337913;22;20075;-83
2022/06/14 02:50:41;;;;;;;1.88;1.58;;;25.10;64.70;;;;;;6337371;22;20013;-83
2022/06/14 02:53:36;;;;;;;2.60;1.50;;;25.10;64.70;;;;;;6338361;22;20372;-83
2022/06/14 02:56:21;;;;;;;2.30;1.02;;;25.10;64.90;;;;;;6310289;22;20421;-83
2022/06/14 02:58:53;;;;;;;2.28;1.35;;;25.10;64.40;;;;;;6338644;22;20014;-83
2022/06/14 03:01:25;;;;;;;2.60;1.23;;;25.00;64.50;;;;;;6337923;22;20026;-84
2022/06/14 03:03:59;;;;;;;2.47;1.60;;;25.00;64.60;;;;;;6338649;22;20062;-84
2022/06/14 03:06:25;;;;;;;2.80;1.75;;;24.80;65.00;;;;;;6338853;22;19999;-84
2022/06/14 03:09:05;;;;;;;3.38;1.30;;;24.80;65.10;;;;;;6311382;22;20076;-85
2022/06/14 03:11:58;;;;;;;1.40;1.30;;;24.80;65.20;;;;;;6338040;22;20128;-82
2022/06/14 03:15:00;;;;;;;1.88;1.20;;;24.80;64.90;;;;;;6338991;22;20007;-82
2022/06/14 03:17:35;;;;;;;3.15;1.30;;;24.90;65.00;;;;;;6311038;22;20446;-82
2022/06/14 03:20:29;;;;;;;1.40;1.30;;;24.90;64.60;;;;;;6337912;22;20003;-82
2022/06/14 03:23:07;;;;;;;2.72;1.50;;;24.90;64.40;;;;;;6327028;22;20041;-80
2022/06/14 03:25:57;;;;;;;1.90;1.60;;;24.80;64.40;;;;;;6309898;22;20302;-81
2022/06/14 03:28:26;;;;;;;2.60;1.17;;;24.90;64.20;;;;;;6310937;22;20007;-82
2022/06/14 03:31:15;;;;;;;5.18;1.25;;;24.90;63.90;;;;;;6337482;22;20006;-82
2022/06/14 03:33:54;;;;;;;1.95;1.40;;;24.90;63.60;;;;;;6338659;22;19995;-82
2022/06/14 03:36:20;;;;;;;1.23;0.93;;;25.00;63.30;;;;;;6338601;22;20414;-83
2022/06/14 03:38:56;;;;;;;1.50;1.00;;;25.00;63.30;;;;;;6338676;22;20006;-83
2022/06/14 03:41:26;;;;;;;2.35;1.45;;;25.00;63.00;;;;;;6338693;22;19999;-82
2022/06/14 03:43:56;;;;;;;1.80;1.27;;;25.00;63.00;;;;;;6311585;22;20011;-82
2022/06/14 03:46:21;;;;;;;2.13;1.30;;;25.10;63.10;;;;;;6338865;22;19999;-83
2022/06/14 03:48:52;;;;;;;1.10;1.00;;;25.00;62.80;;;;;;6339202;22;20009;-83
2022/06/14 03:51:32;;;;;;;2.72;1.20;;;25.10;62.70;;;;;;6310241;22;20072;-83
2022/06/14 03:54:16;;;;;;;1.92;1.10;;;25.10;62.70;;;;;;6338216;22;20008;-83
2022/06/14 03:57:05;;;;;;;1.70;1.17;;;25.10;62.80;;;;;;6338629;22;20098;-82
2022/06/14 03:59:31;;;;;;;1.42;1.30;;;25.10;63.10;;;;;;6338101;22;20011;-83
2022/06/14 04:02:09;;;;;;;2.22;1.42;;;25.10;62.80;;;;;;6310558;22;20010;-81
2022/06/14 04:04:54;;;;;;;1.67;1.27;;;25.10;62.70;;;;;;6338066;22;20010;-82
2022/06/14 04:07:36;;;;;;;1.48;1.17;;;25.10;62.70;;;;;;6338388;22;20051;-84
2022/06/14 04:10:02;;;;;;;1.70;1.50;;;25.10;62.80;;;;;;6337478;22;20003;-84
2022/06/14 04:12:31;;;;;;;1.90;1.30;;;25.10;62.70;;;;;;6338479;22;20517;-83
2022/06/14 04:15:33;;;;;;;1.98;1.75;;;25.10;62.60;;;;;;6338272;22;20002;-82
2022/06/14 04:18:40;;;;;;;3.75;1.40;;;25.10;62.60;;;;;;6338072;22;20003;-81
2022/06/14 04:21:14;;;;;;;0.95;0.93;;;25.10;62.40;;;;;;6337462;22;20412;-81
2022/06/14 04:24:08;;;;;;;1.25;0.98;;;25.20;62.40;;;;;;6338048;22;19999;-83
2022/06/14 04:27:07;;;;;;;2.25;1.20;;;25.10;62.50;;;;;;6338782;22;20003;-81
2022/06/14 04:29:52;;;;;;;3.78;1.45;;;25.10;62.30;;;;;;6336983;22;20074;-82
2022/06/14 04:32:26;;;;;;;1.88;1.30;;;25.10;62.40;;;;;;6337977;22;20009;-81
2022/06/14 04:35:03;;;;;;;1.40;1.30;;;25.10;62.40;;;;;;6337778;22;20002;-82
2022/06/14 04:37:57;;;;;;;1.30;1.20;;;25.10;62.60;;;;;;6338138;22;20003;-81
2022/06/14 04:40:31;;;;;;;2.55;1.40;;;25.10;62.40;;;;;;6330698;22;20022;-82
2022/06/14 04:43:14;;;;;;;1.73;1.15;;;25.10;62.50;;;;;;6338164;22;19995;-82
2022/06/14 04:45:55;;;;;;;1.38;1.20;;;25.10;62.80;;;;;;6337664;22;20029;-82
2022/06/14 04:48:45;;;;;;;1.63;1.45;;;25.10;62.70;;;;;;6309407;22;20036;-83
2022/06/14 04:51:24;;;;;;;3.10;1.70;;;25.00;62.70;;;;;;6336606;22;20014;-83
2022/06/14 04:54:07;;;;;;;1.55;1.40;;;25.00;62.80;;;;;;6311246;22;20003;-84
2022/06/14 04:56:53;;;;;;;3.30;1.33;;;25.00;62.80;;;;;;6338547;22;20078;-85
2022/06/14 04:59:26;;;;;;;3.03;2.05;;;25.10;62.80;;;;;;6336294;22;19999;-81
2022/06/14 05:01:59;;;;;;;2.40;1.60;;;25.10;62.80;;;;;;6337463;22;20043;-82
2022/06/14 05:04:29;;;;;;;2.97;1.27;;;25.10;62.70;;;;;;6337488;22;20003;-81
2022/06/14 05:07:00;;;;;;;1.80;1.35;;;25.00;62.80;;;;;;6337624;22;20048;-81
2022/06/14 05:09:35;;;;;;;2.50;1.50;;;25.00;63.30;;;;;;6337388;22;19999;-82
2022/06/14 05:12:10;;;;;;;1.63;1.38;;;25.00;63.30;;;;;;6304514;22;20019;-81
2022/06/14 05:14:38;;;;;;;1.90;1.20;;;24.90;63.40;;;;;;6305875;22;19995;-82
2022/06/14 05:17:35;;;;;;;6.53;2.03;;;24.90;63.30;;;;;;6305522;22;20002;-82
2022/06/14 05:20:38;;;;;;;3.05;1.42;;;24.90;63.50;;;;;;6306766;22;20055;-82
2022/06/14 05:23:42;;;;;;;3.08;1.50;;;24.90;63.40;;;;;;6255174;22;20003;-82
2022/06/14 05:26:29;;;;;;;1.63;1.10;;;24.90;63.60;;;;;;6306116;22;20011;-82
2022/06/14 05:29:06;;;;;;;1.45;1.13;;;25.00;63.50;;;;;;6307374;22;19995;-81
2022/06/14 05:32:16;;;;;;;3.30;1.30;;;25.00;63.40;;;;;;6307129;22;20041;-81
2022/06/14 05:35:10;;;;;;;1.20;1.02;;;25.00;63.30;;;;;;6306290;22;19999;-83
2022/06/14 05:37:39;;;;;;;2.00;1.02;;;25.00;63.40;;;;;;6307297;22;20025;-82
2022/06/14 05:40:16;;;;;;;2.03;1.05;;;25.00;62.90;;;;;;6306569;22;20065;-83
2022/06/14 05:43:11;;;;;;;4.05;1.05;;;25.10;63.50;;;;;;6307247;22;20624;-87
2022/06/14 05:46:00;;;;;;;2.33;1.10;;;25.00;63.40;;;;;;6307230;22;20484;-86
2022/06/14 05:48:32;;;;;;;2.47;1.33;;;25.00;63.30;;;;;;6307195;22;20116;-86
2022/06/14 05:51:00;;;;;;;1.42;1.10;;;25.00;63.30;;;;;;6307247;22;20280;-87
2022/06/14 05:53:48;;;;;;;2.15;1.23;;;25.00;63.20;;;;;;6306337;22;20003;-87
2022/06/14 05:56:17;;;;;;;3.25;1.40;;;25.00;63.30;;;;;;6307569;22;20429;-87
2022/06/14 05:59:14;;;;;;;2.50;1.20;;;25.00;63.40;;;;;;6308892;22;20002;-86
2022/06/14 06:02:02;;;;;;;2.33;1.58;;;25.00;63.70;;;;;;6308388;22;20003;-87
2022/06/14 06:04:39;;;;;;;2.55;1.23;;;25.10;63.70;;;;;;6306343;22;20072;-88
2022/06/14 06:07:26;;;;;;;2.75;0.98;;;25.10;63.40;;;;;;6305971;22;20311;-87
2022/06/14 06:10:06;;;;;;;2.25;1.42;;;25.20;63.40;;;;;;6307228;22;20306;-83
2022/06/14 06:12:47;;;;;;;3.00;1.60;;;25.30;63.80;;;;;;6320048;22;20505;-82
2022/06/14 06:15:31;;;;;;;2.65;1.30;;;25.30;63.50;;;;;;6311415;22;19998;-83
2022/06/14 06:18:19;;;;;;;2.10;1.52;;;25.30;63.50;;;;;;6320541;22;20034;-89
2022/06/14 06:21:12;;;;;;;4.10;1.95;;;25.30;63.80;;;;;;6309500;22;20013;-89
2022/06/14 06:23:47;;;;;;;2.25;1.70;;;25.30;63.60;;;;;;6277578;22;20089;-90
2022/06/14 06:26:15;;;;;;;7.75;2.42;;;25.40;63.60;;;;;;6336898;22;20017;-85
2022/06/14 06:28:48;;;;;;;2.45;1.48;;;25.40;63.10;;;;;;6335125;22;20502;-85
2022/06/14 06:31:35;;;;;;;1.92;1.30;;;25.30;63.40;;;;;;6331756;22;19999;-88
2022/06/14 06:34:04;;;;;;;2.22;1.33;;;25.40;63.40;;;;;;6336880;22;20003;-87
2022/06/14 06:36:47;;;;;;;5.03;1.95;;;25.40;63.20;;;;;;6338104;22;20021;-86
2022/06/14 06:39:24;;;;;;;3.47;2.10;;;25.40;63.30;;;;;;6311644;22;19998;-87
2022/06/14 06:42:13;;;;;;;2.67;1.52;;;25.50;63.00;;;;;;6338880;22;20371;-85
2022/06/14 06:45:05;;;;;;;6.30;2.70;;;25.40;62.70;;;;;;6338749;22;20333;-85
2022/06/14 06:47:55;;;;;;;4.78;1.58;;;25.50;62.40;;;;;;6338958;22;19999;-82
2022/06/14 06:50:24;;;;;;;3.05;1.73;;;25.60;63.10;;;;;;6339013;22;20007;-84
2022/06/14 06:53:15;;;;;;;4.65;1.60;;;25.50;62.70;;;;;;6337377;22;20030;-82
2022/06/14 06:56:04;;;;;;;4.78;2.28;;;25.60;62.60;;;;;;6338630;22;20001;-87
2022/06/14 06:58:58;;;;;;;7.72;2.45;;;25.70;62.60;;;;;;6311380;22;20002;-88
2022/06/14 07:01:43;;;;;;;2.58;1.30;;;25.80;62.00;;;;;;6339802;22;20003;-83
2022/06/14 07:04:19;;;;;;;3.50;1.80;;;25.90;62.40;;;;;;6339102;22;20009;-84
2022/06/14 07:06:56;;;;;;;5.95;1.90;;;26.00;62.10;;;;;;6338692;22;19999;-83
2022/06/14 07:09:49;;;;;;;2.67;1.40;;;26.00;60.70;;;;;;6338978;22;20490;-84
2022/06/14 07:12:43;;;;;;;1.85;1.25;;;25.90;60.60;;;;;;6308030;22;20015;-83
2022/06/14 07:15:18;;;;;;;3.97;1.58;;;25.90;61.00;;;;;;6338572;22;20052;-87
2022/06/14 07:17:57;;;;;;;3.85;1.50;;;25.90;60.70;;;;;;6337026;22;20068;-88
2022/06/14 07:21:04;;;;;;;3.05;1.08;;;25.90;60.80;;;;;;6339615;22;19999;-88
2022/06/14 07:23:30;;;;;;;2.03;1.33;;;26.00;60.60;;;;;;6269696;22;20019;-87
2022/06/14 07:26:21;;;;;;;1.95;1.15;;;26.10;60.60;;;;;;6337981;22;19998;-88
2022/06/14 07:29:11;;;;;;;2.20;1.30;;;26.20;59.40;;;;;;6338077;22;20006;-88
2022/06/14 07:31:48;;;;;;;2.38;1.30;;;26.20;59.70;;;;;;6310753;22;20006;-88
2022/06/14 07:34:15;;;;;;;2.28;1.20;;;26.30;59.70;;;;;;6338773;22;19999;-88
2022/06/14 07:37:09;;;;;;;4.78;1.50;;;26.30;60.00;;;;;;6310418;22;20006;-88
2022/06/14 07:39:50;;;;;;;3.05;1.77;;;26.30;58.90;;;;;;6310932;22;20408;-88
2022/06/14 07:42:20;;;;;;;3.95;1.27;;;26.20;58.80;;;;;;6337847;22;20075;-87
2022/06/14 07:44:52;;;;;;;2.58;1.00;;;26.20;59.10;;;;;;6337260;22;20405;-87
2022/06/14 07:47:30;;;;;;;2.60;1.30;;;26.30;59.20;;;;;;6334468;22;19994;-87
2022/06/14 07:50:13;;;;;;;4.88;1.60;;;26.30;58.30;;;;;;6336230;22;19999;-89
2022/06/14 07:52:48;;;;;;;9.95;1.67;;;26.20;57.50;;;;;;6309759;22;19995;-85
2022/06/14 07:55:40;;;;;;;2.05;1.02;;;26.20;58.60;;;;;;6338008;22;19994;-90
2022/06/14 07:58:21;;;;;;;3.47;1.75;;;26.20;58.90;;;;;;6337486;22;20055;-85
2022/06/14 08:01:09;;;;;;;5.43;1.45;;;26.30;57.90;;;;;;6308333;22;20018;-86
2022/06/14 08:03:36;;;;;;;1.63;1.17;;;26.30;58.40;;;;;;6338314;22;20006;-86
2022/06/14 08:06:05;;;;;;;3.00;1.10;;;26.40;58.50;;;;;;6337940;22;20005;-86
2022/06/14 08:08:36;;;;;;;3.80;1.33;;;26.50;58.20;;;;;;6338180;22;19998;-84
2022/06/14 08:11:33;;;;;;;4.45;1.30;;;26.50;57.70;;;;;;6337937;22;20413;-83
2022/06/14 08:14:04;;;;;;;2.88;1.35;;;26.60;57.00;;;;;;6299259;22;20461;-83
2022/06/14 08:16:30;;;;;;;2.25;1.40;;;26.60;57.30;;;;;;6303550;22;20023;-83
2022/06/14 08:19:23;;;;;;;5.30;1.45;;;26.70;57.30;;;;;;6305801;22;20025;-84
2022/06/14 08:21:55;;;;;;;8.65;1.77;;;26.70;57.20;;;;;;6305787;22;20007;-86
2022/06/14 08:24:27;;;;;;;2.47;1.10;;;26.70;57.30;;;;;;6306585;22;20068;-84
2022/06/14 08:27:06;;;;;;;1.63;1.20;;;26.80;57.70;;;;;;6297285;22;20064;-84
2022/06/14 08:30:04;;;;;;;4.45;1.33;;;26.80;57.30;;;;;;6303803;22;20094;-84
2022/06/14 08:32:36;;;;;;;5.50;2.20;;;27.00;57.70;;;;;;6302864;22;20007;-86
2022/06/14 08:35:28;;;;;;;2.42;1.65;;;27.00;56.70;;;;;;6303454;22;20003;-84
2022/06/14 08:38:16;;;;;;;4.15;1.50;;;27.10;57.70;;;;;;6299810;22;20010;-85
2022/06/14 08:41:14;;;;;;;2.40;1.20;;;27.20;57.20;;;;;;6305845;22;19999;-84
2022/06/14 08:43:52;;;;;;;7.25;1.70;;;27.20;56.00;;;;;;6254659;22;20007;-85
2022/06/14 08:46:47;;;;;;;4.05;1.38;;;27.30;55.90;;;;;;6305644;22;20021;-84
2022/06/14 08:49:28;;;;;;;3.55;1.40;;;27.30;54.80;;;;;;6266811;22;20011;-84
2022/06/14 08:52:27;;;;;;;4.25;1.00;;;27.40;55.10;;;;;;6305809;22;20003;-84
2022/06/14 08:55:06;;;;;;;1.58;1.10;;;27.40;54.80;;;;;;6306622;22;20022;-84
2022/06/14 08:57:55;;;;;;;1.73;1.02;;;27.50;55.20;;;;;;6307576;22;20506;-85
2022/06/14 09:00:53;;;;;;;5.03;1.92;;;27.60;55.00;;;;;;6307318;22;20003;-85
2022/06/14 09:03:38;;;;;;;3.17;1.20;;;27.60;52.60;;;;;;6307587;22;20056;-83
2022/06/14 09:06:37;;;;;;;3.65;1.52;;;27.70;53.90;;;;;;6305485;22;20034;-87
2022/06/14 09:09:17;;;;;;;7.10;1.55;;;27.70;52.90;;;;;;6307508;22;20044;-87
2022/06/14 09:11:43;;;;;;;;;;;27.80;52.80;;;;;;6309638;22;20318;-87
2022/06/14 09:14:23;;;;;;;2.55;1.23;;;27.80;53.10;;;;;;6339605;22;19917;-84
2022/06/14 09:17:08;;;;;;;3.80;1.27;;;27.90;53.40;;;;;;6339095;22;20422;-85
2022/06/14 09:20:03;;;;;;;2.72;1.38;;;28.00;50.60;;;;;;6338826;22;20006;-85
2022/06/14 09:23:00;;;;;;;6.03;1.77;;;27.90;51.50;;;;;;6338107;22;19998;-85
2022/06/14 09:25:59;;;;;;;5.00;1.60;;;28.00;51.70;;;;;;6338472;22;20329;-86
2022/06/14 09:28:43;;;;;;;3.85;1.27;;;28.10;50.50;;;;;;6310548;22;20006;-84
2022/06/14 09:31:17;;;;;;;2.67;0.98;;;28.10;52.50;;;;;;6339512;22;19999;-91
2022/06/14 09:33:49;;;;;;;4.63;1.13;;;28.10;51.80;;;;;;6339836;22;20413;-84
2022/06/14 09:36:51;;;;;;;3.38;1.00;;;28.20;51.60;;;;;;6311955;22;20028;-85
2022/06/14 09:39:38;;;;;;;6.03;1.85;;;28.30;51.80;;;;;;6339392;22;19995;-84
2022/06/14 09:42:13;;;;;;;3.90;1.50;;;28.40;51.20;;;;;;6339916;22;20003;-85
2022/06/14 09:44:45;;;;;;;3.33;1.42;;;28.50;51.50;;;;;;6343132;22;20002;-84
2022/06/14 09:47:25;;;;;;;3.90;1.23;;;28.60;51.80;;;;;;6339425;22;20136;-88
2022/06/14 09:50:17;;;;;;;3.03;1.50;;;28.70;51.60;;;;;;6339724;22;19999;-88
2022/06/14 09:53:06;;;;;;;2.85;1.50;;;28.80;51.90;;;;;;6311286;22;20007;-83
2022/06/14 09:55:47;;;;;;;2.00;1.17;;;28.80;50.60;;;;;;6339302;22;20003;-84
2022/06/14 09:58:16;;;;;;;4.95;1.98;;;28.80;51.10;;;;;;6338327;22;20440;-84
2022/06/14 10:00:56;;;;;;;3.72;1.45;;;28.90;51.70;;;;;;6310639;22;20037;-84
2022/06/14 10:03:50;;;;;;;5.22;1.10;;;28.90;51.00;;;;;;6311358;22;20003;-85
2022/06/14 10:06:42;;;;;;;6.85;1.33;;;29.10;51.70;;;;;;6339157;22;20005;-85
2022/06/14 10:09:20;;;;;;;1.50;1.02;;;29.20;51.10;;;;;;6311877;22;20006;-85
2022/06/14 10:12:04;;;;;;;2.45;1.00;;;29.30;51.00;;;;;;6339560;22;20006;-83
2022/06/14 10:15:09;;;;;;;4.38;1.23;;;29.30;49.70;;;;;;6339331;22;20060;-84
2022/06/14 10:17:46;;;;;;;4.47;1.52;;;29.40;48.90;;;;;;6276950;22;20037;-85
2022/06/14 10:20:38;;;;;;;5.10;1.58;;;29.40;49.80;;;;;;6339453;22;20317;-85
2022/06/14 10:23:44;;;;;;;2.42;1.05;;;29.40;49.90;;;;;;6338681;22;20053;-85
2022/06/14 10:29:25;;;;;;;7.50;2.50;;;29.50;50.20;;;;;;6338466;22;20143;-86
2022/06/14 10:32:10;;;;;;;3.95;1.30;;;29.60;48.90;;;;;;6339373;22;20046;-85
2022/06/14 10:34:54;;;;;;;3.58;1.13;;;29.70;49.90;;;;;;6339262;22;19995;-83
2022/06/14 10:37:34;;;;;;;2.58;1.02;;;29.90;49.10;;;;;;6339092;22;19999;-81
2022/06/14 10:40:02;;;;;;;6.90;1.42;;;30.00;49.40;;;;;;6338928;22;20005;-82
2022/06/14 10:42:43;;;;;;;2.75;1.15;;;30.00;47.80;;;;;;6311136;22;20282;-82
2022/06/14 10:45:37;;;;;;;4.15;1.20;;;30.00;47.90;;;;;;6335096;22;20005;-82
2022/06/14 10:48:17;;;;;;;2.95;1.25;;;30.10;48.70;;;;;;6335117;22;20492;-82
2022/06/14 10:50:52;;;;;;;6.53;1.35;;;30.20;48.90;;;;;;6333716;22;20578;-81
2022/06/14 10:53:36;;;;;;;2.95;1.23;;;30.30;48.60;;;;;;6307685;22;20013;-82
2022/06/14 10:56:32;;;;;;;4.32;1.60;;;30.30;48.20;;;;;;6335582;22;20056;-83
2022/06/14 10:59:10;;;;;;;3.78;1.20;;;30.40;47.60;;;;;;6337225;22;20055;-83
2022/06/14 11:02:18;;;;;;;2.72;1.08;;;30.40;47.20;;;;;;6309184;22;20007;-82
2022/06/14 11:04:48;;;;;;;2.38;1.17;;;30.50;45.60;;;;;;6275924;22;20009;-83
2022/06/14 11:07:50;;;;;;;2.67;1.13;;;30.60;46.80;;;;;;6326497;22;20006;-80
2022/06/14 11:10:15;;;;;;;3.88;1.50;;;30.70;46.80;;;;;;6331792;22;20497;-81
2022/06/14 11:13:06;;;;;;;6.40;1.25;;;31.00;44.50;;;;;;6305879;22;20095;-80
2022/06/14 11:16:10;;;;;;;3.70;1.10;;;31.10;46.10;;;;;;6337021;22;20349;-80
2022/06/14 11:18:48;;;;;;;2.80;1.10;;;31.40;43.70;;;;;;6335490;22;20455;-82
2022/06/14 11:21:55;;;;;;;3.13;1.20;;;31.50;43.20;;;;;;6337722;22;20376;-81
2022/06/14 11:24:55;;;;;;;4.20;1.55;;;31.50;43.70;;;;;;6336285;22;20003;-81
2022/06/14 11:27:35;;;;;;;2.42;1.13;;;31.70;43.80;;;;;;6337917;22;20006;-81
2022/06/14 11:30:10;;;;;;;1.58;0.98;;;31.90;44.60;;;;;;6331597;22;20075;-80
2022/06/14 11:32:50;;;;;;;4.53;1.10;;;32.40;44.70;;;;;;6309288;22;20038;-80
2022/06/14 11:35:28;;;;;;;2.92;1.17;;;32.90;43.70;;;;;;6336262;22;20003;-83
2022/06/14 11:38:06;;;;;;;2.95;1.02;;;33.50;44.00;;;;;;6336997;22;19999;-85
2022/06/14 11:40:37;;;;;;;1.98;1.20;;;34.00;42.90;;;;;;6335425;22;20007;-80
2022/06/14 11:43:27;;;;;;;4.07;1.35;;;34.40;42.40;;;;;;6337864;22;20006;-82
2022/06/14 11:46:29;;;;;;;2.38;1.05;;;34.70;40.50;;;;;;6337336;22;20002;-80
2022/06/14 11:49:04;;;;;;;3.50;1.20;;;35.00;41.30;;;;;;6307732;22;20007;-81
2022/06/14 11:52:10;;;;;;;3.67;1.40;;;35.30;39.30;;;;;;6336125;22;20055;-78
2022/06/14 11:55:03;;;;;;;4.28;1.08;;;35.40;40.70;;;;;;6332369;22;20029;-82
2022/06/14 11:57:44;;;;;;;2.58;1.27;;;35.70;39.60;;;;;;6335616;22;20022;-83
2022/06/14 12:00:31;;;;;;;1.77;1.17;;;35.90;39.40;;;;;;6308276;22;20002;-83
2022/06/14 12:03:06;;;;;;;2.47;1.10;;;36.10;38.50;;;;;;6334470;22;20003;-83
2022/06/14 12:05:48;;;;;;;2.25;1.10;;;35.90;38.60;;;;;;6335916;22;19998;-86
2022/06/14 12:08:35;;;;;;;3.15;1.27;;;35.90;38.60;;;;;;6305964;22;20006;-87
2022/06/14 12:11:22;;;;;;;1.98;1.15;;;36.00;39.20;;;;;;6334881;22;20002;-87
2022/06/14 12:14:03;;;;;;;2.00;1.15;;;36.20;38.50;;;;;;6335773;22;20038;-86
2022/06/14 12:16:39;;;;;;;2.55;1.10;;;36.20;36.30;;;;;;6335462;22;19994;-86
2022/06/14 12:19:34;;;;;;;1.98;1.10;;;36.20;37.90;;;;;;6336333;22;19998;-86
2022/06/14 12:22:28;;;;;;;4.78;1.20;;;36.10;37.50;;;;;;6288242;22;20401;-86
2022/06/14 12:28:23;;;;;;;2.88;1.15;;;36.00;36.50;;;;;;6335936;22;20415;-86
2022/06/14 12:30:56;;;;;;;2.30;1.13;;;36.00;37.20;;;;;;6335435;22;20022;-86
2022/06/14 12:33:38;;;;;;;1.13;0.85;;;36.20;37.70;;;;;;6335761;22;20015;-87
2022/06/14 12:36:32;;;;;;;3.35;1.30;;;36.30;37.60;;;;;;6335519;22;20019;-85
2022/06/14 12:39:07;;;;;;;2.20;0.98;;;36.30;35.70;;;;;;6336214;22;19994;-85
2022/06/14 12:41:37;;;;;;;1.08;0.73;;;36.20;37.40;;;;;;6336237;22;20006;-85
2022/06/14 12:44:19;;;;;;;3.38;1.23;;;36.30;38.20;;;;;;6336182;22;20010;-84
2022/06/14 12:46:47;;;;;;;3.85;1.08;;;36.40;38.00;;;;;;6335262;22;20006;-84
2022/06/14 12:49:19;;;;;;;4.20;1.50;;;36.60;37.50;;;;;;6307866;22;20007;-84
2022/06/14 12:51:50;;;;;;;2.40;1.10;;;36.70;37.80;;;;;;6335342;22;20010;-85
2022/06/14 12:54:36;;;;;;;3.38;1.25;;;36.70;37.90;;;;;;6335285;22;20009;-84
2022/06/14 12:57:16;;;;;;;1.85;1.08;;;36.70;38.10;;;;;;6334985;22;20078;-85
2022/06/14 12:59:56;;;;;;;4.18;1.13;;;36.80;37.60;;;;;;6335082;22;20006;-85
2022/06/14 13:02:27;;;;;;;1.63;1.10;;;36.90;38.00;;;;;;6335749;22;20005;-85
2022/06/14 13:05:03;;;;;;;3.47;1.40;;;37.00;37.80;;;;;;6335222;22;19998;-85
2022/06/14 13:08:13;;;;;;;3.35;1.33;;;36.90;37.70;;;;;;6335189;22;20003;-84
2022/06/14 13:10:57;;;;;;;2.08;1.25;;;36.90;37.80;;;;;;6277405;22;20011;-84
2022/06/14 13:13:54;;;;;;;1.48;1.10;;;36.80;37.70;;;;;;6333415;22;20434;-83
2022/06/14 13:17:07;;;;;;;2.50;1.20;;;36.60;37.80;;;;;;6307598;22;20006;-82
2022/06/14 13:20:05;;;;;;;4.30;1.58;;;36.50;37.40;;;;;;6290292;22;20041;-89
2022/06/14 13:23:00;;;;;;;2.35;1.20;;;36.30;37.00;;;;;;6310267;22;20041;-88
2022/06/14 13:26:05;;;;;;;1.85;1.10;;;36.30;37.00;;;;;;6337864;22;20006;-86
2022/06/14 13:29:18;;;;;;;2.67;1.50;;;36.30;37.30;;;;;;6337089;22;20466;-85
2022/06/14 13:32:27;;;;;;;1.48;0.90;;;36.40;37.40;;;;;;6308616;22;20007;-84
2022/06/14 13:35:23;;;;;;;3.70;1.13;;;36.40;37.30;;;;;;6309246;22;19999;-84
2022/06/14 13:38:08;;;;;;;2.97;1.10;;;36.30;37.40;;;;;;6337647;22;20417;-84
2022/06/14 13:40:52;;;;;;;1.73;1.23;;;36.40;37.00;;;;;;6337741;22;20324;-84
2022/06/14 13:43:46;;;;;;;2.30;1.10;;;36.40;36.50;;;;;;6339117;22;20031;-84
2022/06/14 13:47:00;;;;;;;3.00;1.65;;;36.40;36.90;;;;;;6339436;22;20077;-85
2022/06/14 13:49:32;;;;;;;3.72;1.33;;;36.30;37.20;;;;;;6338074;22;20009;-84
2022/06/14 13:52:03;;;;;;;3.08;1.63;;;36.10;37.40;;;;;;6338525;22;20007;-84
2022/06/14 13:54:35;;;;;;;1.73;1.25;;;36.00;37.80;;;;;;6338233;22;20006;-84
2022/06/14 13:57:30;;;;;;;3.72;1.65;;;35.90;37.60;;;;;;6338569;22;20030;-83
2022/06/14 14:00:06;;;;;;;2.45;1.10;;;35.70;37.70;;;;;;6338343;22;19999;-83
2022/06/14 14:02:41;;;;;;;1.50;1.10;;;35.70;37.30;;;;;;6338294;22;20007;-83
2022/06/14 14:05:23;;;;;;;1.98;1.05;;;35.50;37.30;;;;;;6339515;22;20003;-84
2022/06/14 14:08:16;;;;;;;2.40;0.95;;;35.30;35.70;;;;;;6337764;22;20006;-83
2022/06/14 14:10:51;;;;;;;1.10;1.00;;;35.20;36.70;;;;;;6337662;22;20004;-83